createdAt,value
2023-04-19T02:36:50.016Z,8.60
2023-04-19T02:39:17.283Z,7.70
2023-04-19T02:41:43.964Z,7.60
2023-04-19T02:44:10.741Z,7.60
2023-04-19T02:46:37.439Z,7.60
2023-04-19T02:49:04.237Z,7.60
2023-04-19T02:51:31.002Z,7.50
2023-04-19T02:53:57.569Z,7.50
2023-04-19T02:56:24.204Z,7.60
2023-04-19T02:58:52.916Z,7.50
2023-04-19T03:01:19.497Z,7.50
2023-04-19T03:03:47.291Z,7.50
2023-04-19T03:06:14.803Z,7.50
2023-04-19T03:08:41.488Z,7.50
2023-04-19T03:11:08.124Z,7.50
2023-04-19T03:13:34.840Z,7.50
2023-04-19T03:16:01.661Z,7.50
2023-04-19T03:18:28.409Z,7.40
2023-04-19T03:20:55.083Z,7.40
2023-04-19T03:23:21.853Z,7.50
2023-04-19T03:25:48.551Z,7.50
2023-04-19T03:28:15.466Z,7.50
2023-04-19T03:30:42.389Z,7.40
2023-04-19T03:33:09.083Z,7.50
2023-04-19T03:35:35.846Z,7.40
2023-04-19T03:38:02.513Z,7.40
2023-04-19T03:40:32.812Z,7.40
2023-04-19T03:42:59.545Z,7.40
2023-04-19T03:45:27.131Z,7.40
2023-04-19T03:47:53.812Z,7.40
2023-04-19T03:50:20.426Z,7.40
2023-04-19T03:52:47.114Z,7.40
2023-04-19T03:55:14.152Z,7.40
2023-04-19T03:57:41.054Z,7.40
2023-04-19T04:00:08.691Z,7.40
2023-04-19T04:02:41.884Z,7.40
2023-04-19T04:05:08.993Z,7.40
2023-04-19T04:07:35.765Z,7.40
2023-04-19T04:10:02.481Z,7.40
2023-04-19T04:12:29.097Z,7.50
2023-04-19T04:14:55.725Z,7.50
2023-04-19T04:17:24.129Z,7.40
2023-04-19T04:19:50.751Z,7.40
2023-04-19T04:22:17.558Z,7.40
2023-04-19T04:24:44.336Z,7.40
2023-04-19T04:27:11.381Z,7.40
2023-04-19T04:29:38.417Z,7.40
2023-04-19T04:32:08.722Z,7.40
2023-04-19T04:34:36.622Z,7.40
2023-04-19T04:37:03.976Z,7.40
2023-04-19T04:39:30.762Z,7.40
2023-04-19T04:42:00.383Z,7.40
2023-04-19T04:44:27.841Z,7.40
2023-04-19T04:46:54.625Z,7.40
2023-04-19T04:49:21.249Z,7.40
2023-04-19T04:51:47.903Z,7.40
2023-04-19T04:54:14.782Z,7.40
2023-04-19T04:56:41.722Z,7.40
2023-04-19T04:59:08.415Z,7.40
2023-04-19T05:01:35.194Z,7.40
2023-04-19T05:04:01.928Z,7.40
2023-04-19T05:06:28.566Z,7.40
2023-04-19T05:08:55.172Z,7.40
2023-04-19T05:11:21.934Z,7.40
2023-04-19T05:13:48.599Z,7.40
2023-04-19T05:16:15.286Z,7.40
2023-04-19T05:18:41.927Z,7.50
2023-04-19T05:21:10.418Z,7.50
2023-04-19T05:23:38.385Z,7.40
2023-04-19T05:26:05.536Z,7.50
2023-04-19T05:28:32.357Z,7.50
2023-04-19T05:30:59.097Z,7.50
2023-04-19T05:33:25.807Z,7.50
2023-04-19T05:35:52.457Z,7.50
2023-04-19T05:38:19.083Z,7.50
2023-04-19T05:40:46.085Z,7.50
2023-04-19T05:43:12.721Z,7.50
2023-04-19T05:45:39.484Z,7.50
2023-04-19T05:48:06.501Z,7.50
2023-04-19T05:50:33.268Z,7.50
2023-04-19T05:52:59.930Z,7.40
2023-04-19T05:55:26.779Z,7.50
2023-04-19T05:57:53.437Z,7.60
2023-04-19T06:00:20.909Z,7.50
2023-04-19T06:02:47.755Z,7.50
2023-04-19T06:05:14.541Z,8.00
2023-04-19T06:07:47.072Z,8.00
2023-04-19T06:10:20.971Z,8.00
2023-04-19T06:12:47.574Z,7.90
2023-04-19T06:15:14.277Z,7.80
2023-04-19T06:17:41.148Z,7.70
2023-04-19T06:20:09.868Z,7.70
2023-04-19T06:22:42.570Z,7.70
2023-04-19T06:25:09.553Z,7.60
2023-04-19T06:27:36.330Z,7.60
2023-04-19T06:30:03.487Z,7.70
2023-04-19T06:32:30.173Z,7.60
2023-04-19T06:34:56.816Z,7.70
2023-04-19T06:37:23.448Z,7.60
2023-04-19T06:39:50.062Z,7.60
2023-04-19T06:42:19.712Z,7.60
2023-04-19T06:44:46.930Z,7.60
2023-04-19T06:47:13.580Z,7.70
2023-04-19T06:49:40.180Z,7.70
2023-04-19T06:52:06.764Z,7.70
2023-04-19T06:54:33.371Z,7.80
2023-04-19T06:57:00.777Z,7.80
2023-04-19T06:59:28.254Z,7.70
2023-04-19T07:01:57.305Z,7.80
2023-04-19T07:04:25.418Z,7.80
2023-04-19T07:06:52.291Z,7.80
2023-04-19T07:09:18.917Z,7.80
2023-04-19T07:11:47.537Z,7.80
2023-04-19T07:14:14.670Z,7.80
2023-04-19T07:16:41.610Z,7.80
2023-04-19T07:19:08.277Z,7.90
2023-04-19T07:21:35.647Z,7.90
2023-04-19T07:24:02.480Z,7.90
2023-04-19T07:26:29.289Z,8.00
2023-04-19T07:28:56.877Z,8.30
2023-04-19T07:31:24.867Z,8.70
2023-04-19T07:33:52.372Z,8.80
2023-04-19T07:36:19.002Z,8.80
2023-04-19T07:38:45.660Z,8.80
2023-04-19T07:41:12.320Z,8.90
2023-04-19T07:43:39.390Z,8.80
2023-04-19T07:46:15.954Z,8.90
2023-04-19T07:48:42.740Z,8.80
2023-04-19T07:51:13.771Z,8.80
2023-04-19T07:53:43.817Z,8.90
2023-04-19T07:56:12.862Z,8.80
2023-04-19T07:58:41.186Z,9.00
2023-04-19T08:01:08.027Z,8.90
2023-04-19T08:56:12.821Z,9.00
2023-04-19T08:59:03.921Z,10.00
2023-04-19T09:01:36.237Z,10.00
2023-04-19T09:04:31.537Z,10.00
2023-04-19T09:06:55.095Z,10.10
2023-04-19T09:09:36.649Z,10.00
2023-04-19T09:12:16.669Z,10.10
2023-04-19T09:47:45.919Z,10.90
2023-04-19T10:51:43.531Z,11.10
2023-04-19T10:54:27.382Z,10.40
2023-04-19T10:57:04.516Z,10.30
2023-04-19T10:59:34.503Z,10.30
2023-04-19T11:02:23.135Z,10.30
2023-04-19T11:04:50.199Z,10.30
2023-04-19T11:07:21.467Z,10.30
2023-04-19T11:09:49.679Z,10.30
2023-04-19T11:12:18.888Z,10.30
2023-04-19T11:14:59.789Z,10.40
2023-04-19T11:17:32.409Z,10.40
2023-04-19T11:20:01.852Z,10.40
2023-04-19T11:22:36.035Z,10.40
2023-04-19T11:25:17.312Z,10.30
2023-04-19T11:27:46.202Z,10.40
2023-04-19T11:30:15.031Z,10.40
2023-04-19T11:32:53.048Z,10.40
2023-04-19T11:35:21.942Z,10.40
2023-04-19T11:37:49.307Z,10.40
2023-04-19T11:40:20.724Z,10.40
2023-04-19T11:42:56.786Z,10.40
2023-04-19T11:45:39.824Z,10.50
2023-04-19T11:50:36.377Z,10.40
2023-04-19T11:53:13.411Z,9.80
2023-04-19T11:55:46.245Z,9.70
2023-04-19T11:58:31.899Z,9.40
2023-04-19T12:01:10.007Z,9.20
2023-04-19T12:06:13.704Z,9.20
2023-04-19T12:08:47.235Z,9.00
2023-04-19T12:11:14.914Z,8.90
2023-04-19T12:13:42.085Z,8.90
2023-04-19T12:16:08.839Z,8.80
2023-04-19T12:18:48.685Z,8.70
2023-04-19T12:46:09.557Z,8.50
2023-04-19T12:48:36.442Z,8.30
2023-04-19T12:51:03.444Z,8.30
2023-04-19T12:53:30.220Z,8.30
2023-04-19T12:55:56.788Z,8.30
2023-04-19T12:58:23.398Z,8.30
2023-04-19T13:00:50.860Z,8.30
2023-04-19T13:03:17.565Z,8.30
2023-04-19T13:05:44.257Z,8.40
2023-04-19T13:08:10.859Z,8.30
2023-04-19T13:10:37.473Z,8.40
2023-04-19T13:13:04.065Z,8.40
2023-04-19T13:15:31.070Z,8.40
2023-04-19T13:17:57.776Z,8.40
2023-04-19T13:20:24.371Z,8.50
2023-04-19T13:22:51.047Z,8.50
2023-04-19T13:25:17.701Z,8.60
2023-04-19T13:27:44.370Z,8.50
2023-04-19T13:30:11.423Z,8.50
2023-04-19T13:32:38.186Z,8.50
2023-04-19T13:35:05.445Z,8.40
2023-04-19T13:37:32.086Z,8.30
2023-04-19T13:40:10.696Z,8.30
2023-04-19T13:42:41.788Z,8.10
2023-04-19T13:45:09.813Z,8.10
2023-04-19T13:47:36.678Z,8.10
2023-04-19T13:50:03.567Z,8.10
2023-04-19T13:52:30.221Z,8.10
2023-04-19T13:54:56.844Z,8.10
2023-04-19T13:57:23.444Z,8.10
2023-04-19T13:59:50.050Z,8.00
2023-04-19T14:02:16.849Z,7.90
2023-04-19T14:04:43.606Z,8.00
2023-04-19T14:07:10.265Z,7.90
2023-04-19T14:09:36.973Z,7.90
2023-04-19T14:12:04.491Z,7.90
2023-04-19T14:14:32.500Z,7.70
2023-04-19T14:16:59.237Z,7.60
2023-04-19T14:19:26.302Z,7.40
2023-04-19T14:21:52.983Z,7.40
2023-04-19T14:24:19.623Z,7.30
2023-04-19T14:26:48.703Z,7.30
2023-04-19T14:29:21.112Z,7.30
2023-04-19T14:31:47.860Z,7.20
2023-04-19T14:39:09.004Z,7.20
2023-04-19T14:41:35.645Z,7.00
2023-04-19T14:44:02.243Z,6.90
2023-04-19T14:46:28.951Z,7.00
2023-04-19T14:48:55.637Z,7.00
2023-04-19T15:13:27.253Z,6.80
2023-04-19T15:15:53.905Z,5.90
2023-04-19T15:18:20.727Z,5.80
2023-04-19T16:39:22.956Z,5.70
2023-04-19T17:03:55.473Z,5.40
2023-04-19T17:06:22.255Z,4.90
2023-04-19T17:08:48.929Z,4.90
2023-04-19T17:11:15.673Z,4.90
2023-04-19T17:13:42.296Z,4.90
2023-04-19T17:16:09.006Z,4.80
2023-04-19T17:18:35.655Z,4.80
2023-04-19T17:21:02.254Z,4.90
2023-04-19T17:23:28.877Z,5.10
2023-04-19T17:25:55.614Z,5.10
2023-04-19T17:28:22.258Z,5.10
2023-04-19T17:30:48.859Z,5.10
2023-04-19T17:33:15.550Z,5.00
2023-04-19T17:35:42.163Z,5.00
2023-04-19T17:38:08.840Z,5.00
2023-04-19T17:40:35.610Z,4.90
2023-04-19T17:43:02.519Z,4.80
2023-04-19T17:45:29.212Z,4.80
2023-04-19T17:47:56.331Z,4.80
2023-04-19T17:50:23.178Z,4.80
2023-04-19T17:52:50.558Z,4.80
2023-04-19T17:55:17.182Z,4.80
2023-04-19T17:57:46.044Z,4.80
2023-04-19T18:00:13.614Z,4.70
2023-04-19T18:02:40.783Z,4.70
2023-04-19T18:05:07.878Z,4.70
2023-04-19T18:07:36.310Z,4.70
2023-04-19T18:10:03.979Z,4.80
2023-04-19T18:12:30.909Z,4.90
2023-04-19T18:14:57.532Z,4.80
2023-04-19T18:17:24.294Z,4.90
2023-04-19T18:19:51.064Z,4.90
2023-04-19T18:22:17.705Z,4.80
2023-04-19T18:24:46.756Z,4.90
2023-04-19T18:27:13.985Z,4.80
2023-04-19T18:29:40.868Z,4.80
2023-04-19T18:32:07.615Z,4.80
2023-04-19T18:34:34.338Z,4.80
2023-04-19T18:37:02.942Z,4.70
2023-04-19T18:39:29.640Z,4.80
2023-04-19T18:41:58.151Z,4.70
2023-04-19T18:44:49.372Z,4.70
2023-04-19T18:47:11.917Z,4.60
2023-04-19T18:49:38.635Z,4.60
2023-04-19T18:52:05.436Z,4.60
2023-04-19T18:54:32.032Z,4.50
2023-04-19T18:57:21.545Z,4.60
2023-04-19T18:59:45.724Z,4.50
2023-04-19T19:02:12.583Z,4.60
2023-04-19T19:04:52.021Z,4.60
2023-04-19T19:07:35.552Z,4.60
2023-04-19T19:10:18.143Z,4.60
2023-04-19T19:12:47.619Z,4.50
2023-04-19T19:15:14.785Z,4.50
2023-04-19T19:17:41.567Z,4.60
2023-04-19T19:20:09.926Z,4.60
2023-04-19T19:22:36.572Z,4.60
2023-04-19T19:25:03.421Z,4.50
2023-04-19T19:27:30.174Z,4.60
2023-04-19T19:29:58.542Z,4.60
2023-04-19T19:32:26.484Z,4.60
2023-04-19T19:34:58.882Z,4.50
2023-04-19T19:37:28.594Z,4.50
2023-04-19T19:39:56.841Z,4.60
2023-04-19T19:42:24.101Z,4.50
2023-04-19T19:44:55.346Z,4.50
2023-04-19T19:47:23.680Z,4.50
2023-04-19T19:50:35.005Z,4.50
2023-04-19T19:52:37.354Z,4.50
2023-04-19T19:55:04.313Z,4.50
2023-04-19T19:58:16.355Z,4.50
2023-04-19T20:00:42.893Z,4.50
2023-04-19T20:03:12.552Z,4.50
2023-04-19T20:05:39.802Z,4.50
2023-04-19T20:08:09.683Z,4.50
2023-04-19T20:10:38.105Z,4.50
2023-04-19T20:13:08.019Z,4.40
2023-04-19T20:15:36.565Z,4.50
2023-04-19T20:18:03.971Z,4.50
2023-04-19T20:20:30.888Z,4.50
2023-04-19T20:22:58.832Z,4.50
2023-04-19T20:25:25.666Z,4.50
2023-04-19T20:27:52.401Z,4.50
2023-04-19T20:30:19.057Z,4.50
2023-04-19T20:32:45.952Z,4.50
2023-04-19T20:35:12.847Z,4.40
2023-04-19T20:37:39.793Z,4.40
2023-04-19T20:40:07.640Z,4.40
2023-04-19T20:42:34.221Z,4.40
2023-04-19T20:45:01.314Z,4.40
2023-04-19T20:47:28.102Z,4.40
2023-04-19T20:49:54.748Z,4.50
